Time;durP1;ratioP1;P1;durP2;ratioP2;P2;SDS_P1;SDS_P2;PMS_P1;PMS_P2;Temp;Humidity;BMP_temperature;BMP_pressure;BME280_temperature;BME280_humidity;BME280_pressure;Samples;Min_cycle;Max_cycle;Signal;HPM_P1;HPM_P2
2022/04/30 00:01:54;;;;;;;15.05;7.57;;;;;;;;;;5094448;28;20492;-72
2022/04/30 00:04:20;;;;;;;13.48;7.40;;;;;;;;;;5093984;28;20081;-72
2022/04/30 00:06:46;;;;;;;15.70;7.32;;;;;;;;;;5093938;28;20500;-71
2022/04/30 00:09:12;;;;;;;15.77;8.07;;;;;;;;;;5093983;28;20043;-71
2022/04/30 00:11:39;;;;;;;12.77;7.28;;;;;;;;;;5077026;28;20577;-71
2022/04/30 00:14:05;;;;;;;13.07;7.35;;;;;;;;;;5094092;28;20040;-71
2022/04/30 00:16:31;;;;;;;21.33;8.23;;;;;;;;;;5077097;28;20142;-72
2022/04/30 00:18:57;;;;;;;14.73;8.25;;;;;;;;;;5077263;28;20040;-71
2022/04/30 00:21:24;;;;;;;22.80;8.00;;;;;;;;;;5094027;28;20044;-71
2022/04/30 00:23:50;;;;;;;15.63;7.65;;;;;;;;;;5093900;28;20085;-71
2022/04/30 00:26:16;;;;;;;19.75;8.32;;;;;;;;;;5093486;28;20044;-72
2022/04/30 00:28:42;;;;;;;15.40;7.97;;;;;;;;;;5076567;28;20492;-71
2022/04/30 00:31:08;;;;;;;14.57;7.35;;;;;;;;;;5093428;28;20047;-72
2022/04/30 00:33:34;;;;;;;13.65;6.65;;;;;;;;;;5093778;28;20531;-71
2022/04/30 00:36:00;;;;;;;15.70;7.70;;;;;;;;;;5093693;28;20036;-71
2022/04/30 00:38:26;;;;;;;17.85;8.07;;;;;;;;;;5093436;28;20040;-71
2022/04/30 00:40:52;;;;;;;14.00;7.57;;;;;;;;;;5076768;28;20039;-71
2022/04/30 00:43:18;;;;;;;17.60;8.80;;;;;;;;;;5076685;28;20039;-71
2022/04/30 00:45:48;;;;;;;13.75;7.95;;;7.90;99.90;;;;;;5093298;28;20047;-72
2022/04/30 00:48:14;;;;;;;16.58;7.75;;;;;;;;;;5093199;28;20039;-71
2022/04/30 00:50:41;;;;;;;19.13;8.63;;;8.00;99.90;;;;;;5076444;28;20043;-72
2022/04/30 00:53:08;;;;;;;13.02;7.85;;;8.10;99.90;;;;;;5093054;28;20130;-72
2022/04/30 00:55:39;;;;;;;16.10;7.53;;;8.00;99.90;;;;;;5093235;28;20035;-72
2022/04/30 00:58:07;;;;;;;12.45;7.15;;;8.00;99.90;;;;;;5093003;28;20050;-72
2022/04/30 01:00:34;;;;;;;16.77;7.72;;;;;;;;;;5093007;28;20047;-72
2022/04/30 01:03:00;;;;;;;15.30;7.10;;;;;;;;;;5093234;28;20055;-73
2022/04/30 01:05:28;;;;;;;20.10;7.85;;;7.90;99.90;;;;;;5093052;28;20051;-72
2022/04/30 01:07:56;;;;;;;10.27;7.30;;;;;;;;;;5075906;28;20044;-73
2022/04/30 01:10:22;;;;;;;13.73;7.53;;;;;;;;;;5076003;28;20044;-73
2022/04/30 01:12:49;;;;;;;13.85;7.63;;;;;;;;;;5075890;28;20093;-73
2022/04/30 01:15:15;;;;;;;15.50;8.40;;;;;;;;;;5092902;28;20044;-73
2022/04/30 01:17:42;;;;;;;15.82;8.00;;;;;;;;;;5059792;28;20423;-72
2022/04/30 01:20:09;;;;;;;13.00;7.82;;;8.10;99.90;;;;;;5092753;28;20043;-73
2022/04/30 01:22:39;;;;;;;13.82;7.63;;;;;;;;;;5076108;28;20441;-72
2022/04/30 01:25:06;;;;;;;14.73;7.88;;;;;;;;;;5092758;28;20487;-72
2022/04/30 01:27:32;;;;;;;15.57;7.22;;;;;;;;;;5092614;28;20089;-72
2022/04/30 01:30:01;;;;;;;12.63;7.00;;;7.90;99.90;;;;;;5075790;28;20047;-72
2022/04/30 01:38:04;;;;;;;14.40;7.25;;;;;;;;;;5091891;28;20081;-72
2022/04/30 01:40:30;;;;;;;20.60;7.22;;;;;;;;;;5092232;28;20047;-72
2022/04/30 01:42:59;;;;;;;16.50;6.88;;;8.30;99.90;;;;;;5092566;28;20071;-72
2022/04/30 01:45:25;;;;;;;9.63;6.55;;;8.20;99.90;;;;;;5075771;28;20048;-72
2022/04/30 01:47:52;;;;;;;16.50;6.32;;;;;;;;;;5092140;28;20082;-72
2022/04/30 01:50:18;;;;;;;16.30;6.70;;;;;;;;;;5092502;28;20044;-72
2022/04/30 01:52:44;;;;;;;16.63;6.53;;;;;;;;;;5091731;28;20135;-71
2022/04/30 01:55:10;;;;;;;14.27;6.65;;;;;;;;;;5092213;28;20545;-72
2022/04/30 01:57:41;;;;;;;12.98;6.60;;;8.20;99.90;;;;;;5092054;28;20040;-72
2022/04/30 02:00:12;;;;;;;15.95;6.93;;;;;;;;;;5075017;28;20134;-72
2022/04/30 02:02:40;;;;;;;13.38;6.47;;;8.50;99.90;;;;;;5075218;28;20044;-72
2022/04/30 02:05:08;;;;;;;17.25;6.57;;;8.30;99.90;;;;;;5092127;28;20043;-72
2022/04/30 02:07:39;;;;;;;19.30;7.20;;;8.30;99.90;;;;;;5075277;28;20044;-73
2022/04/30 02:10:07;;;;;;;10.40;6.93;;;8.20;99.90;;;;;;5092174;28;20127;-71
2022/04/30 02:12:34;;;;;;;15.25;6.63;;;;;;;;;;5075142;28;20044;-71
2022/04/30 02:15:00;;;;;;;14.55;6.90;;;;;;;;;;5075085;28;20055;-71
2022/04/30 02:17:27;;;;;;;11.80;6.25;;;;;;;;;;5092506;28;20047;-71
2022/04/30 02:22:40;;;;;;;12.77;7.15;;;;;;;;;;5077575;28;20047;-71
2022/04/30 02:25:11;;;;;;;17.13;6.70;;;8.40;99.90;;;;;;5058550;28;20044;-72
2022/04/30 02:27:42;;;;;;;14.90;6.82;;;;;;;;;;5091981;28;20387;-71
2022/04/30 02:30:09;;;;;;;10.65;6.03;;;;;;;;;;5075153;28;20048;-71
2022/04/30 02:32:40;;;;;;;12.43;6.40;;;8.40;99.90;;;;;;5074747;28;20044;-72
2022/04/30 02:35:06;;;;;;;14.85;7.28;;;;;;;;;;5091987;28;20043;-71
2022/04/30 02:37:32;;;;;;;11.60;6.65;;;;;;;;;;5075130;28;20084;-72
2022/04/30 02:39:58;;;;;;;13.30;6.53;;;;;;;;;;5074805;28;20032;-72
2022/04/30 02:42:25;;;;;;;12.35;6.93;;;;;;;;;;5091630;28;20073;-72
2022/04/30 02:44:52;;;;;;;10.82;6.05;;;;;;;;;;5091877;28;20083;-72
2022/04/30 02:47:18;;;;;;;11.68;6.18;;;;;;;;;;5091533;28;20044;-72
2022/04/30 02:49:45;;;;;;;12.90;6.63;;;;;;;;;;5058925;28;20040;-72
2022/04/30 02:52:11;;;;;;;13.02;6.63;;;;;;;;;;5095298;28;20056;-72
2022/04/30 02:54:37;;;;;;;11.95;6.43;;;;;;;;;;5095635;28;20039;-72
2022/04/30 02:57:03;;;;;;;11.57;6.13;;;;;;;;;;5095620;28;20036;-72
2022/04/30 03:02:14;;;;;;;18.67;6.63;;;;;;;;;;5095532;28;20079;-72
2022/04/30 03:04:40;;;;;;;20.45;6.28;;;;;;;;;;5095211;28;20036;-73
2022/04/30 03:07:11;;;;;;;9.30;6.00;;;;;;;;;;5095287;28;20082;-73
2022/04/30 03:09:39;;;;;;;17.27;7.93;;;8.50;99.90;;;;;;5095493;28;20055;-71
2022/04/30 03:12:08;;;;;;;14.40;6.40;;;;;;;;;;5095243;28;20047;-72
2022/04/30 03:14:34;;;;;;;12.48;5.93;;;;;;;;;;5095197;28;20040;-72
2022/04/30 03:22:30;;;;;;;14.50;6.63;;;;;;;;;;5095273;28;20463;-72
2022/04/30 03:24:56;;;;;;;14.38;6.80;;;;;;;;;;5078401;28;20043;-72
2022/04/30 03:27:22;;;;;;;8.73;5.60;;;;;;;;;;5094732;28;20036;-71
2022/04/30 03:29:48;;;;;;;16.17;6.45;;;;;;;;;;5094748;28;20036;-71
2022/04/30 03:32:14;;;;;;;9.80;5.47;;;;;;;;;;5061339;28;20040;-72
2022/04/30 03:34:40;;;;;;;11.95;6.25;;;;;;;;;;5077746;28;20040;-72
2022/04/30 03:37:06;;;;;;;11.25;5.63;;;;;;;;;;5077800;28;20093;-72
2022/04/30 03:39:32;;;;;;;14.75;6.22;;;;;;;;;;5077843;28;20036;-72
2022/04/30 03:41:58;;;;;;;13.77;6.15;;;;;;;;;;5094765;28;20511;-71
2022/04/30 03:44:25;;;;;;;14.70;6.10;;;;;;;;;;5094590;28;20070;-72
2022/04/30 03:46:52;;;;;;;13.63;6.50;;;;;;;;;;5094963;28;20043;-74
2022/04/30 03:49:18;;;;;;;16.65;6.25;;;;;;;;;;5094629;28;20549;-71
2022/04/30 03:51:44;;;;;;;13.93;5.90;;;;;;;;;;5094120;28;20055;-72
2022/04/30 03:54:10;;;;;;;12.25;6.15;;;;;;;;;;5094622;28;20491;-72
2022/04/30 03:56:36;;;;;;;12.05;6.25;;;;;;;;;;5094548;28;20093;-72
2022/04/30 03:59:02;;;;;;;12.82;6.43;;;;;;;;;;5077541;28;20495;-72
2022/04/30 04:01:28;;;;;;;11.50;5.95;;;;;;;;;;5093855;28;20056;-72
2022/04/30 04:03:55;;;;;;;10.95;6.10;;;;;;;;;;5077349;28;20084;-72
2022/04/30 04:06:22;;;;;;;15.00;5.93;;;;;;;;;;5094444;28;20040;-73
2022/04/30 04:08:51;;;;;;;14.23;6.60;;;;;;;;;;5094320;28;20434;-72
2022/04/30 04:11:17;;;;;;;13.95;6.35;;;;;;;;;;5076920;28;20044;-72
2022/04/30 04:19:13;;;;;;;12.88;5.85;;;;;;;;;;5093785;28;20040;-72
2022/04/30 04:21:40;;;;;;;12.55;5.85;;;;;;;;;;5077170;28;20055;-72
2022/04/30 04:26:51;;;;;;;9.73;6.53;;;;;;;;;;5094069;28;20040;-73
2022/04/30 04:29:17;;;;;;;12.13;6.30;;;;;;;;;;5093605;28;20086;-73
2022/04/30 04:31:44;;;;;;;27.13;7.50;;;;;;;;;;5093524;28;20127;-73
2022/04/30 04:34:10;;;;;;;13.93;6.72;;;8.40;99.90;;;;;;5076752;28;20043;-72
2022/04/30 04:36:37;;;;;;;14.98;6.97;;;;;;;;;;5093821;28;20043;-72
2022/04/30 04:39:12;;;;;;;13.73;7.13;;;8.40;99.90;;;;;;5060437;28;20372;-72
2022/04/30 04:41:38;;;;;;;14.40;7.82;;;;;;;;;;5076964;28;20404;-72
2022/04/30 04:44:04;;;;;;;18.00;7.75;;;;;;;;;;5093692;28;20055;-72
2022/04/30 04:46:30;;;;;;;16.10;7.20;;;;;;;;;;5093471;28;20040;-73
2022/04/30 04:48:56;;;;;;;12.98;7.45;;;;;;;;;;5093360;28;20035;-72
2022/04/30 04:51:22;;;;;;;17.48;7.05;;;;;;;;;;5092976;28;20127;-72
2022/04/30 04:53:49;;;;;;;14.38;7.35;;;;;;;;;;5076551;28;20039;-72
2022/04/30 04:56:15;;;;;;;11.57;6.78;;;;;;;;;;5059849;28;20048;-72
2022/04/30 04:58:41;;;;;;;13.65;7.18;;;;;;;;;;5092979;28;20046;-71
2022/04/30 05:01:07;;;;;;;13.98;7.65;;;;;;;;;;5092996;28;20392;-72
2022/04/30 05:03:33;;;;;;;14.00;6.90;;;;;;;;;;5076050;28;20036;-72
2022/04/30 05:05:59;;;;;;;16.13;7.68;;;;;;;;;;5093043;28;20036;-71
2022/04/30 05:08:25;;;;;;;19.05;7.15;;;;;;;;;;5092865;28;20483;-73
2022/04/30 05:10:51;;;;;;;12.27;7.20;;;;;;;;;;5076126;28;20097;-71
2022/04/30 05:13:17;;;;;;;12.95;8.05;;;;;;;;;;5091899;28;20036;-71
2022/04/30 05:15:44;;;;;;;11.35;7.55;;;;;;;;;;5092549;28;20122;-71
2022/04/30 05:18:10;;;;;;;18.13;7.50;;;;;;;;;;5075556;28;20044;-71
2022/04/30 05:20:36;;;;;;;15.85;7.97;;;;;;;;;;5092881;28;20044;-71
2022/04/30 05:23:02;;;;;;;13.52;7.55;;;;;;;;;;5092793;28;20071;-72
2022/04/30 05:25:28;;;;;;;14.35;7.07;;;;;;;;;;5092658;28;20074;-72
2022/04/30 05:27:54;;;;;;;14.35;6.90;;;;;;;;;;5092747;28;20071;-74
2022/04/30 05:30:20;;;;;;;10.13;7.30;;;;;;;;;;5075644;28;20047;-72
2022/04/30 05:32:46;;;;;;;14.30;7.32;;;;;;;;;;5075615;28;20122;-72
2022/04/30 05:35:13;;;;;;;17.88;8.10;;;;;;;;;;5092577;28;20051;-72
2022/04/30 05:37:40;;;;;;;16.35;7.95;;;;;;;;;;5075528;28;20040;-71
2022/04/30 05:40:06;;;;;;;16.65;8.10;;;;;;;;;;5092613;28;20484;-71
2022/04/30 05:42:32;;;;;;;23.70;8.93;;;;;;;;;;5092604;28;20058;-72
2022/04/30 05:44:59;;;;;;;16.95;7.95;;;;;;;;;;5092463;28;20036;-71
2022/04/30 05:47:25;;;;;;;15.63;7.80;;;;;;;;;;5075654;28;20131;-71
2022/04/30 05:49:51;;;;;;;18.85;8.43;;;;;;;;;;5092323;28;20043;-72
2022/04/30 05:52:19;;;;;;;13.95;8.55;;;;;;;;;;5091908;28;20075;-72
2022/04/30 05:54:46;;;;;;;15.80;7.88;;;;;;;;;;5092344;28;20612;-72
2022/04/30 05:57:12;;;;;;;17.63;8.95;;;;;;;;;;5075522;28;20380;-72
2022/04/30 05:59:38;;;;;;;17.75;8.80;;;;;;;;;;5075643;28;20433;-72
2022/04/30 06:02:04;;;;;;;20.58;9.05;;;;;;;;;;5091356;28;20058;-72
2022/04/30 06:04:30;;;;;;;18.35;9.50;;;;;;;;;;5092449;28;20044;-74
2022/04/30 06:06:58;;;;;;;22.15;10.23;;;;;;;;;;5092256;28;20047;-74
2022/04/30 06:09:24;;;;;;;22.58;9.57;;;;;;;;;;5094278;28;20111;-74
2022/04/30 06:11:51;;;;;;;18.05;9.82;;;;;;;;;;5075128;28;20070;-74
2022/04/30 06:14:17;;;;;;;21.35;9.93;;;;;;;;;;5092503;28;20388;-73
2022/04/30 06:16:43;;;;;;;19.27;10.30;;;;;;;;;;5092853;28;20369;-74
2022/04/30 06:19:09;;;;;;;21.17;10.82;;;;;;;;;;5092491;28;20032;-74
2022/04/30 06:21:36;;;;;;;21.38;11.20;;;;;;;;;;5092082;28;20080;-74
2022/04/30 06:24:02;;;;;;;20.83;10.40;;;;;;;;;;5076501;28;20044;-73
2022/04/30 06:26:28;;;;;;;26.42;11.63;;;;;;;;;;5096445;28;20044;-73
2022/04/30 06:28:55;;;;;;;22.92;10.70;;;;;;;;;;5096246;28;20065;-73
2022/04/30 06:31:22;;;;;;;19.70;10.32;;;;;;;;;;5079401;28;20376;-74
2022/04/30 06:33:52;;;;;;;20.73;11.40;;;;;;;;;;5078850;28;20097;-74
2022/04/30 06:36:18;;;;;;;19.20;10.82;;;;;;;;;;5095625;28;20043;-74
2022/04/30 06:38:44;;;;;;;24.30;12.45;;;;;;;;;;5079037;28;20039;-75
2022/04/30 06:41:10;;;;;;;24.55;11.18;;;;;;;;;;5078836;28;20043;-74
2022/04/30 06:43:36;;;;;;;22.52;11.07;;;;;;;;;;5078744;28;20534;-74
2022/04/30 06:46:04;;;;;;;19.10;11.13;;;;;;;;;;5095526;28;20400;-74
2022/04/30 06:48:30;;;;;;;21.13;11.65;;;;;;;;;;5095605;28;20433;-74
2022/04/30 06:50:56;;;;;;;24.80;10.85;;;;;;;;;;5078535;28;20040;-74
2022/04/30 06:58:54;;;;;;;24.05;10.75;;;;;;;;;;5095368;28;20044;-73
2022/04/30 07:03:49;;;;;;;21.05;11.15;;;;;;;;;;5095870;28;20505;-74
2022/04/30 07:06:16;;;;;;;24.27;10.80;;;;;;;;;;5095533;28;20093;-74
2022/04/30 07:08:42;;;;;;;21.90;10.90;;;;;;;;;;5078916;28;20552;-74
2022/04/30 07:11:08;;;;;;;21.70;11.38;;;;;;;;;;5095322;28;20065;-73
2022/04/30 07:13:34;;;;;;;19.58;11.25;;;;;;;;;;5095545;28;20475;-74
2022/04/30 07:16:00;;;;;;;19.75;10.10;;;;;;;;;;5095498;28;20040;-74
2022/04/30 07:18:26;;;;;;;19.83;11.32;;;;;;;;;;5095537;28;20040;-74
2022/04/30 07:20:53;;;;;;;24.00;10.38;;;;;;;;;;5061927;28;20044;-73
2022/04/30 07:23:20;;;;;;;17.35;9.93;;;;;;;;;;5062164;28;20044;-73
2022/04/30 07:25:47;;;;;;;17.27;9.27;;;;;;;;;;5078485;28;20071;-73
2022/04/30 07:28:13;;;;;;;22.08;10.00;;;;;;;;;;5078807;28;20059;-73
2022/04/30 07:30:39;;;;;;;21.70;10.38;;;;;;;;;;5094926;28;20464;-74
2022/04/30 07:33:05;;;;;;;20.35;9.63;;;;;;;;;;5094976;28;20493;-74
2022/04/30 07:35:31;;;;;;;22.52;9.90;;;;;;;;;;5094038;28;20032;-74
2022/04/30 07:37:57;;;;;;;19.00;8.80;;;;;;;;;;5094721;28;20077;-75
2022/04/30 07:40:24;;;;;;;20.67;9.93;;;;;;;;;;5094759;28;20044;-75
2022/04/30 07:42:51;;;;;;;19.73;9.55;;;;;;;;;;5094861;28;20105;-75
2022/04/30 07:45:17;;;;;;;20.90;8.45;;;;;;;;;;5078133;28;20043;-74
2022/04/30 07:47:43;;;;;;;17.70;8.40;;;10.40;99.90;;;;;;5094799;28;20495;-74
2022/04/30 07:50:09;;;;;;;17.08;8.90;;;;;;;;;;5061333;28;20055;-74
2022/04/30 07:52:35;;;;;;;17.15;9.02;;;;;;;;;;5077691;28;20055;-73
2022/04/30 07:55:02;;;;;;;21.70;9.60;;;;;;;;;;5094643;28;20051;-74
2022/04/30 07:57:28;;;;;;;20.98;9.40;;;;;;;;;;5094667;28;20080;-73
2022/04/30 07:59:54;;;;;;;14.85;9.73;;;;;;;;;;5095246;28;20496;-73
2022/04/30 08:02:21;;;;;;;19.95;10.02;;;;;;;;;;5077880;28;20127;-73
2022/04/30 08:04:47;;;;;;;20.42;9.85;;;;;;;;;;5077381;28;20036;-73
2022/04/30 08:07:13;;;;;;;17.00;9.20;;;;;;;;;;5094023;28;20040;-73
2022/04/30 08:09:39;;;;;;;15.35;9.50;;;;;;;;;;5077092;28;20066;-74
2022/04/30 08:12:05;;;;;;;21.55;9.95;;;;;;;;;;5094181;28;20131;-75
2022/04/30 08:14:31;;;;;;;18.73;10.43;;;;;;;;;;5077539;28;20044;-76
2022/04/30 08:16:57;;;;;;;19.77;10.60;;;;;;;;;;5077093;28;20047;-76
2022/04/30 08:19:23;;;;;;;18.95;9.65;;;;;;;;;;5094112;28;20127;-76
2022/04/30 08:21:50;;;;;;;16.42;9.98;;;;;;;;;;5093859;28;20105;-76
2022/04/30 08:24:16;;;;;;;21.33;10.15;;;;;;;;;;5076978;28;20043;-76
2022/04/30 08:26:43;;;;;;;20.23;9.32;;;;;;;;;;5094152;28;20044;-76
2022/04/30 08:29:09;;;;;;;19.77;9.95;;;;;;;;;;5093725;28;20169;-76
2022/04/30 08:31:35;;;;;;;17.00;9.57;;;;;;;;;;5076696;28;20515;-76
2022/04/30 08:34:01;;;;;;;16.75;9.45;;;;;;;;;;5076716;28;20123;-76
2022/04/30 08:36:27;;;;;;;15.95;7.25;;;;;;;;;;5093613;28;20044;-76
2022/04/30 08:38:53;;;;;;;15.40;7.35;;;;;;;;;;5093528;28;20061;-76
2022/04/30 08:41:21;;;;;;;13.18;9.13;;;;;;;;;;5093458;28;20484;-76
2022/04/30 08:43:48;;;;;;;14.00;7.15;;;;;;;;;;5076860;28;20040;-76
2022/04/30 08:46:15;;;;;;;17.30;9.23;;;;;;;;;;5093480;28;20040;-76
2022/04/30 08:48:44;;;;;;;14.27;7.30;;;;;;;;;;5076592;28;20066;-75
2022/04/30 08:51:10;;;;;;;12.75;7.20;;;;;;;;;;5093054;28;20123;-75
2022/04/30 08:53:37;;;;;;;12.88;7.57;;;;;;;;;;5093078;28;20189;-75
2022/04/30 08:56:10;;;;;;;12.57;7.20;;;;;;;;;;5076697;28;20387;-75
2022/04/30 08:58:36;;;;;;;;;;;;;;;;;;5076670;28;20082;-75
2022/04/30 09:01:03;;;;;;;19.15;8.15;;;10.10;99.90;;;;;;5093152;28;19916;-75
2022/04/30 09:03:34;;;;;;;17.92;8.93;;;10.10;99.90;;;;;;5092829;28;20503;-75
2022/04/30 09:06:00;;;;;;;18.55;9.13;;;;;;;;;;5075926;28;20499;-75
2022/04/30 09:08:27;;;;;;;17.88;9.27;;;;;;;;;;5059625;28;20094;-75
2022/04/30 09:11:04;;;;;;;18.00;9.98;;;;;;;;;;5092759;28;20113;-75
2022/04/30 09:13:30;;;;;;;20.95;10.40;;;;;;;;;;5092770;28;20076;-75
2022/04/30 09:15:56;;;;;;;22.17;10.27;;;;;;;;;;5075915;28;20077;-75
2022/04/30 09:18:22;;;;;;;21.20;10.82;;;;;;;;;;5075901;28;20088;-75
2022/04/30 09:20:49;;;;;;;21.58;10.65;;;9.60;99.90;;;;;;5092585;28;20046;-74
2022/04/30 09:23:26;;;;;;;22.77;10.73;;;9.90;99.90;;;;;;5059532;28;20040;-75
2022/04/30 09:25:54;;;;;;;18.50;10.70;;;;;;;;;;5092828;28;20074;-75
2022/04/30 09:28:27;;;;;;;24.05;11.93;;;9.90;99.90;;;;;;5092236;28;20163;-75
2022/04/30 09:31:07;;;;;;;22.08;11.32;;;;;;;;;;5092606;28;20118;-75
2022/04/30 09:33:33;;;;;;;19.45;10.77;;;;;;;;;;5092926;28;20127;-75
2022/04/30 09:38:52;;;;;;;16.27;10.40;;;;;;;;;;5092772;28;20040;-75
2022/04/30 09:41:25;;;;;;;21.08;11.30;;;;;;;;;;5093115;28;20285;-75
2022/04/30 09:44:05;;;;;;;21.73;11.45;;;9.80;99.90;;;;;;5092830;28;20383;-75
2022/04/30 09:46:33;;;;;;;24.83;11.07;;;9.80;99.90;;;;;;5075931;28;20139;-75
2022/04/30 09:54:30;;;;;;;22.65;11.43;;;;;;;;;;5092200;28;20428;-74
2022/04/30 09:56:59;;;;;;;17.92;10.32;;;;;;;;;;5092201;28;20486;-74
2022/04/30 09:59:26;;;;;;;23.33;11.20;;;9.70;99.90;;;;;;5075339;28;20392;-75
2022/04/30 10:01:53;;;;;;;16.35;10.13;;;9.90;99.90;;;;;;5092440;28;20071;-74
2022/04/30 10:04:24;;;;;;;17.80;9.43;;;9.80;99.90;;;;;;5075946;28;20101;-74
2022/04/30 10:06:51;;;;;;;16.38;8.38;;;9.70;99.90;;;;;;5092054;28;20047;-74
2022/04/30 10:09:17;;;;;;;13.63;8.45;;;;;;;;;;5075063;28;20556;-74
2022/04/30 10:12:07;;;;;;;12.98;7.30;;;;;;;;;;5092091;28;20094;-74
2022/04/30 10:14:50;;;;;;;13.30;7.20;;;10.00;99.90;;;;;;5092290;28;20044;-74
2022/04/30 10:17:17;;;;;;;16.75;7.70;;;;;;;;;;5075417;28;20488;-74
2022/04/30 10:20:32;;;;;;;13.65;8.40;;;10.20;99.90;;;;;;5075200;28;20630;-74
2022/04/30 10:22:55;;;;;;;13.68;9.18;;;10.30;99.90;;;;;;5091613;28;20130;-74
2022/04/30 10:25:37;;;;;;;18.67;10.60;;;;;;;;;;5092114;28;20151;-74
2022/04/30 10:28:17;;;;;;;23.25;10.90;;;;;;;;;;5091966;28;20491;-74
2022/04/30 10:30:45;;;;;;;18.38;12.00;;;10.40;99.90;;;;;;5091820;28;20055;-73
2022/04/30 10:33:11;;;;;;;22.85;11.13;;;;;;;;;;5091816;28;20036;-73
2022/04/30 10:35:38;;;;;;;18.48;11.23;;;;;;;;;;5091812;28;20072;-74
2022/04/30 10:38:24;;;;;;;18.75;9.77;;;11.10;99.90;;;;;;5091797;28;20138;-74
2022/04/30 10:40:57;;;;;;;21.20;10.77;;;;;;;;;;5091316;28;20051;-74
2022/04/30 10:43:32;;;;;;;17.90;10.63;;;11.20;99.90;;;;;;5091626;28;20055;-74
2022/04/30 10:45:58;;;;;;;17.13;9.85;;;;;;;;;;5091945;28;20543;-75
2022/04/30 10:48:25;;;;;;;13.55;9.07;;;11.50;99.90;;;;;;5091614;28;20395;-75
2022/04/30 10:51:03;;;;;;;18.98;9.82;;;;;;;;;;5074716;28;20051;-75
2022/04/30 10:53:29;;;;;;;13.65;9.27;;;;;;;;;;5074571;28;20090;-75
2022/04/30 10:55:55;;;;;;;19.20;9.57;;;;;;;;;;5092263;28;20448;-75
2022/04/30 10:58:25;;;;;;;17.60;9.88;;;;;;;;;;5091866;28;20040;-74
2022/04/30 11:00:51;;;;;;;16.05;9.43;;;;;;;;;;5075018;28;20083;-74
2022/04/30 11:03:18;;;;;;;18.40;10.02;;;;;;;;;;5091639;28;20055;-74
2022/04/30 11:05:48;;;;;;;14.68;9.27;;;;;;;;;;5092002;28;20365;-75
2022/04/30 11:08:15;;;;;;;19.05;9.75;;;;;;;;;;5075207;28;20486;-75
2022/04/30 11:10:54;;;;;;;17.88;9.25;;;;;;;;;;5092419;28;20040;-75
2022/04/30 11:13:21;;;;;;;19.52;9.73;;;;;;;;;;5095442;28;20075;-74
2022/04/30 11:15:48;;;;;;;18.05;9.73;;;11.40;99.90;;;;;;5095606;28;20118;-74
2022/04/30 11:18:18;;;;;;;15.80;8.77;;;;;;;;;;5079108;28;20031;-74
2022/04/30 11:20:44;;;;;;;20.92;10.05;;;;;;;;;;5078826;28;20036;-73
2022/04/30 11:23:22;;;;;;;16.02;9.88;;;11.00;99.90;;;;;;5078899;28;20048;-74
2022/04/30 11:25:48;;;;;;;19.00;9.48;;;;;;;;;;5095370;28;20056;-74
2022/04/30 11:28:14;;;;;;;17.20;10.07;;;;;;;;;;5095079;28;20040;-74
2022/04/30 11:30:41;;;;;;;20.35;10.43;;;10.70;99.90;;;;;;5078301;28;20483;-74
2022/04/30 11:33:08;;;;;;;15.45;9.98;;;;;;;;;;5095642;28;20105;-74
2022/04/30 11:35:34;;;;;;;15.10;8.75;;;;;;;;;;5079062;28;20388;-74
2022/04/30 11:38:01;;;;;;;12.95;9.40;;;;;;;;;;5078152;28;20035;-74
2022/04/30 11:40:27;;;;;;;18.02;9.40;;;;;;;;;;5095294;28;20043;-74
2022/04/30 11:42:56;;;;;;;16.98;10.25;;;10.10;99.90;;;;;;5095470;28;20048;-74
2022/04/30 11:45:29;;;;;;;18.55;9.30;;;;;;;;;;5078256;28;20040;-74
2022/04/30 11:47:58;;;;;;;12.95;8.57;;;10.30;99.90;;;;;;5094786;28;20035;-74
2022/04/30 11:50:29;;;;;;;12.25;7.75;;;10.30;99.90;;;;;;5077507;28;20104;-74
2022/04/30 11:52:55;;;;;;;16.15;8.50;;;;;;;;;;5094136;28;20059;-73
2022/04/30 11:55:22;;;;;;;14.63;8.38;;;;;;;;;;5094648;28;20066;-74
2022/04/30 11:57:50;;;;;;;15.88;9.13;;;;;;;;;;5077526;28;20047;-75
2022/04/30 12:00:19;;;;;;;13.98;7.85;;;10.10;99.90;;;;;;5094466;28;20051;-74
2022/04/30 12:02:47;;;;;;;14.02;8.35;;;;;;;;;;5094843;28;20051;-74
2022/04/30 12:05:13;;;;;;;17.48;8.95;;;;;;;;;;5094761;28;20511;-74
2022/04/30 12:07:44;;;;;;;16.58;9.00;;;10.40;99.90;;;;;;5077680;28;20444;-74
2022/04/30 12:10:18;;;;;;;15.85;8.55;;;10.40;99.90;;;;;;5094484;28;20319;-74
2022/04/30 12:12:44;;;;;;;15.80;8.20;;;;;;;;;;5077091;28;20127;-74
2022/04/30 12:15:18;;;;;;;17.52;8.88;;;;;;;;;;5093891;28;20040;-73
2022/04/30 12:17:44;;;;;;;14.98;9.55;;;;;;;;;;5077493;28;20119;-74
2022/04/30 12:25:47;;;;;;;12.13;8.10;;;;;;;;;;5093602;28;20048;-75
2022/04/30 12:28:13;;;;;;;16.35;9.57;;;10.80;99.90;;;;;;5076778;28;20090;-75
2022/04/30 12:30:55;;;;;;;16.10;8.73;;;;;;;;;;5093651;28;20054;-75
2022/04/30 12:33:21;;;;;;;18.40;8.63;;;;;;;;;;5093508;28;20040;-75
2022/04/30 12:35:55;;;;;;;18.45;8.52;;;;;;;;;;5093894;28;20119;-75
2022/04/30 12:38:21;;;;;;;16.85;8.40;;;;;;;;;;5093605;28;20044;-75
2022/04/30 12:40:48;;;;;;;15.10;8.70;;;;;;;;;;5093416;28;20038;-74
2022/04/30 12:43:14;;;;;;;12.95;8.30;;;;;;;;;;5076847;28;20395;-74
2022/04/30 12:45:44;;;;;;;18.92;9.35;;;;;;;;;;5076369;28;20047;-74
2022/04/30 12:48:10;;;;;;;15.68;8.48;;;;;;;;;;5076402;28;20093;-74
2022/04/30 12:50:37;;;;;;;19.33;9.02;;;;;;;;;;5076371;28;20044;-74
2022/04/30 12:53:09;;;;;;;22.98;9.73;;;;;;;;;;5093270;28;20491;-75
2022/04/30 12:55:35;;;;;;;17.08;10.07;;;;;;;;;;5076597;28;20222;-75
2022/04/30 12:58:01;;;;;;;19.95;9.02;;;;;;;;;;5076768;28;20128;-75
2022/04/30 13:00:27;;;;;;;19.02;8.93;;;;;;;;;;5093695;28;20032;-75
2022/04/30 13:02:53;;;;;;;15.65;9.07;;;;;;;;;;5076996;28;20047;-75
2022/04/30 13:05:19;;;;;;;18.13;9.45;;;;;;;;;;5093342;28;20036;-74
2022/04/30 13:07:45;;;;;;;16.70;9.75;;;;;;;;;;5092835;28;20044;-74
2022/04/30 13:15:42;;;;;;;17.20;9.77;;;;;;;;;;5092864;28;20509;-75
2022/04/30 13:18:08;;;;;;;19.90;9.35;;;;;;;;;;5075778;28;20403;-75
2022/04/30 13:20:35;;;;;;;15.38;8.75;;;12.20;99.30;;;;;;5075657;28;20484;-75
2022/04/30 13:23:01;;;;;;;12.05;7.18;;;;;;;;;;5092578;28;20181;-75
2022/04/30 13:25:31;;;;;;;12.65;5.95;;;;;;;;;;5075706;28;20036;-75
2022/04/30 13:27:57;;;;;;;9.57;6.10;;;12.20;97.60;;;;;;5075582;28;20428;-75
2022/04/30 13:30:24;;;;;;;10.93;7.30;;;12.10;97.40;;;;;;5092657;28;20040;-75
2022/04/30 13:32:50;;;;;;;15.38;8.70;;;;;;;;;;5092359;28;20062;-75
2022/04/30 13:35:17;;;;;;;15.90;9.23;;;11.30;98.50;;;;;;5092093;28;20488;-75
2022/04/30 13:37:45;;;;;;;12.90;8.02;;;;;;;;;;5075889;28;20396;-75
2022/04/30 13:40:12;;;;;;;18.58;9.45;;;;;;;;;;5092596;28;20516;-75
2022/04/30 13:42:38;;;;;;;19.02;11.02;;;;;;;;;;5092364;28;20044;-75
2022/04/30 13:45:05;;;;;;;22.90;11.63;;;11.60;99.90;;;;;;5092347;28;20040;-75
2022/04/30 13:47:31;;;;;;;20.52;11.90;;;;;;;;;;5075924;28;20047;-74
2022/04/30 13:49:59;;;;;;;30.58;16.63;;;12.90;98.50;;;;;;5092368;28;20078;-74
2022/04/30 13:52:25;;;;;;;25.30;13.43;;;;;;;;;;5092259;28;20052;-74
2022/04/30 13:54:52;;;;;;;28.25;14.82;;;;;;;;;;5075574;28;20089;-74
2022/04/30 13:57:22;;;;;;;17.50;10.07;;;;;;;;;;5092311;28;20043;-75
2022/04/30 13:59:48;;;;;;;19.52;9.55;;;;;;;;;;5092467;28;20080;-74
2022/04/30 14:02:14;;;;;;;21.58;11.48;;;;;;;;;;5075507;28;20040;-74
2022/04/30 14:04:41;;;;;;;19.80;9.27;;;;;;;;;;5092253;28;20123;-74
2022/04/30 14:07:09;;;;;;;17.00;10.00;;;12.10;99.90;;;;;;5092184;28;20492;-74
2022/04/30 14:09:36;;;;;;;15.13;7.57;;;;;;;;;;5075406;28;20040;-74
2022/04/30 14:12:03;;;;;;;13.63;5.93;;;12.30;99.00;;;;;;5075841;28;20104;-74
2022/04/30 14:19:59;;;;;;;18.30;6.00;;;;;;;;;;5092003;28;20127;-74
2022/04/30 14:22:25;;;;;;;14.25;6.43;;;;;;;;;;5092122;28;20061;-75
2022/04/30 14:24:51;;;;;;;10.95;6.63;;;;;;;;;;5092107;28;20150;-75
2022/04/30 14:27:17;;;;;;;11.45;5.55;;;;;;;;;;5092184;28;20105;-75
2022/04/30 14:29:44;;;;;;;11.30;6.13;;;;;;;;;;5075122;28;20487;-76
2022/04/30 14:32:11;;;;;;;11.95;6.00;;;11.80;94.90;;;;;;5075756;28;20111;-75
2022/04/30 14:34:37;;;;;;;9.45;5.97;;;12.30;98.80;;;;;;5058257;28;20476;-75
2022/04/30 14:37:04;;;;;;;8.13;5.65;;;;;;;;;;5092496;28;20036;-75
2022/04/30 14:39:30;;;;;;;9.93;5.82;;;;;;;;;;5092459;28;20499;-75
2022/04/30 14:41:56;;;;;;;13.23;6.60;;;;;;;;;;5092019;28;20039;-75
2022/04/30 14:44:22;;;;;;;9.30;6.05;;;;;;;;;;5075563;28;20531;-75
2022/04/30 14:46:48;;;;;;;9.38;6.03;;;;;;;;;;5095921;28;20044;-75
2022/04/30 14:49:14;;;;;;;11.77;6.35;;;;;;;;;;5095977;28;20173;-75
2022/04/30 14:51:42;;;;;;;10.50;6.75;;;;;;;;;;5095292;28;20044;-75
2022/04/30 14:54:08;;;;;;;13.15;7.10;;;;;;;;;;5078531;28;20503;-75
2022/04/30 14:56:34;;;;;;;15.23;7.25;;;;;;;;;;5095535;28;20051;-75
2022/04/30 14:59:00;;;;;;;12.25;6.70;;;;;;;;;;5078709;28;20051;-75
2022/04/30 15:01:26;;;;;;;12.68;7.20;;;;;;;;;;5095160;28;20483;-75
2022/04/30 15:03:52;;;;;;;18.67;7.97;;;;;;;;;;5095627;28;20075;-75
2022/04/30 15:06:19;;;;;;;12.07;6.75;;;;;;;;;;5095255;28;20040;-75